createdAt,value
2022-11-28T00:03:59.405Z,17.08
2022-11-28T00:09:01.720Z,16.77
2022-11-28T00:14:03.973Z,19.00
2022-11-28T00:19:07.060Z,17.92
2022-11-28T00:24:10.015Z,18.10
2022-11-28T00:29:12.821Z,16.42
2022-11-28T00:34:16.098Z,17.13
2022-11-28T00:39:18.391Z,17.27
2022-11-28T00:44:20.440Z,16.92
2022-11-28T00:49:22.561Z,17.80
2022-11-28T00:54:24.859Z,18.13
2022-11-28T00:59:27.114Z,15.80
2022-11-28T01:04:29.326Z,19.50
2022-11-28T01:09:31.473Z,19.92
2022-11-28T01:14:33.837Z,17.45
2022-11-28T01:19:35.974Z,17.85
2022-11-28T01:24:38.174Z,19.92
2022-11-28T01:29:40.660Z,20.10
2022-11-28T01:34:43.144Z,20.92
2022-11-28T01:39:45.445Z,20.08
2022-11-28T01:44:50.485Z,20.42
2022-11-28T01:49:54.710Z,19.83
2022-11-28T01:55:00.988Z,17.90
2022-11-28T02:00:12.334Z,17.10
2022-11-28T02:05:19.981Z,17.98
2022-11-28T02:10:33.339Z,19.33
2022-11-28T02:15:38.638Z,19.60
2022-11-28T02:21:24.490Z,20.35
2022-11-28T02:26:26.693Z,18.58
2022-11-28T02:31:50.209Z,20.33
2022-11-28T02:36:58.951Z,20.60
2022-11-28T02:42:12.633Z,20.60
2022-11-28T02:47:30.636Z,21.25
2022-11-28T02:52:47.715Z,20.75
2022-11-28T02:57:53.691Z,20.27
2022-11-28T03:03:17.143Z,21.52
2022-11-28T03:09:01.151Z,21.50
2022-11-28T03:14:15.279Z,21.55
2022-11-28T03:19:27.954Z,22.80
2022-11-28T03:24:50.730Z,24.38
2022-11-28T03:29:57.272Z,24.63
2022-11-28T03:35:14.902Z,24.15
2022-11-28T03:40:24.270Z,24.88
2022-11-28T03:45:31.904Z,25.23
2022-11-28T03:50:41.591Z,24.23
2022-11-28T03:55:57.526Z,24.80
2022-11-28T04:01:02.786Z,23.98
2022-11-28T04:06:17.115Z,25.33
2022-11-28T04:11:25.664Z,27.60
2022-11-28T04:16:53.588Z,26.40
2022-11-28T04:22:02.744Z,27.73
2022-11-28T04:27:19.594Z,26.52
2022-11-28T04:32:23.742Z,25.65
2022-11-28T04:37:28.822Z,26.63
2022-11-28T04:42:36.799Z,28.70
2022-11-28T04:47:39.163Z,25.38
2022-11-28T04:52:53.861Z,28.48
2022-11-28T04:58:10.155Z,27.00
2022-11-28T05:03:12.939Z,30.30
2022-11-28T05:08:15.132Z,30.17
2022-11-28T05:13:18.106Z,30.23
2022-11-28T05:18:20.290Z,31.35
2022-11-28T05:23:22.391Z,34.38
2022-11-28T05:28:27.938Z,33.60
2022-11-28T05:33:31.218Z,29.45
2022-11-28T05:38:34.335Z,34.22
2022-11-28T05:43:36.839Z,31.95
2022-11-28T05:48:46.214Z,31.48
2022-11-28T05:53:48.393Z,40.65
2022-11-28T05:58:55.449Z,43.00
2022-11-28T06:04:01.348Z,42.30
2022-11-28T06:09:06.308Z,39.92
2022-11-28T06:14:08.741Z,35.22
2022-11-28T06:19:12.216Z,35.25
2022-11-28T06:24:18.098Z,35.38
2022-11-28T06:29:20.399Z,34.47
2022-11-28T06:34:23.329Z,38.00
2022-11-28T06:39:31.432Z,37.90
2022-11-28T06:44:33.656Z,43.67
2022-11-28T06:49:54.221Z,32.47
2022-11-28T06:54:56.454Z,34.00
2022-11-28T06:59:59.201Z,37.10
2022-11-28T07:05:01.527Z,40.72
2022-11-28T07:10:07.640Z,38.92
2022-11-28T07:15:10.240Z,34.70
2022-11-28T07:20:12.896Z,34.30
2022-11-28T07:25:15.187Z,31.10
2022-11-28T07:30:17.527Z,27.13
2022-11-28T07:35:21.702Z,26.73
2022-11-28T07:40:23.950Z,21.63
2022-11-28T07:45:37.073Z,20.45
2022-11-28T07:50:48.575Z,18.75
2022-11-28T07:55:50.729Z,19.85
2022-11-28T08:00:52.998Z,21.10
2022-11-28T08:06:02.865Z,20.35
2022-11-28T08:11:07.398Z,16.23
2022-11-28T08:16:17.119Z,17.13
2022-11-28T08:21:23.631Z,13.15
2022-11-28T08:26:30.392Z,11.52
2022-11-28T08:31:36.690Z,11.27
2022-11-28T08:36:39.213Z,11.95
2022-11-28T08:41:41.615Z,13.77
2022-11-28T08:46:43.810Z,14.43
2022-11-28T08:51:46.173Z,14.95
2022-11-28T08:56:48.734Z,14.20
2022-11-28T09:01:53.948Z,13.25
2022-11-28T09:06:56.252Z,12.68
2022-11-28T09:11:58.360Z,10.65
2022-11-28T09:17:00.873Z,10.60
2022-11-28T09:22:03.100Z,11.07
2022-11-28T09:27:05.227Z,12.05
2022-11-28T09:32:07.563Z,12.48
2022-11-28T09:37:10.224Z,12.95
2022-11-28T09:42:35.613Z,11.90
2022-11-28T09:47:40.624Z,11.60
2022-11-28T09:53:00.031Z,14.65
2022-11-28T09:58:10.562Z,14.73
2022-11-28T10:03:34.651Z,17.03
2022-11-28T10:08:45.675Z,14.88
2022-11-28T10:14:08.523Z,12.95
2022-11-28T10:19:31.529Z,24.20
2022-11-28T10:24:43.936Z,14.20
2022-11-28T10:30:12.456Z,18.52
2022-11-28T10:35:28.754Z,15.40
2022-11-28T10:40:52.401Z,12.68
2022-11-28T10:45:57.775Z,14.88
2022-11-28T10:51:30.627Z,200.02
2022-11-28T10:56:58.833Z,83.78
2022-11-28T11:02:19.066Z,22.90
2022-11-28T11:07:31.774Z,28.55
2022-11-28T11:12:34.957Z,21.30
2022-11-28T11:17:38.011Z,29.50
2022-11-28T11:22:40.119Z,22.10
2022-11-28T11:27:57.104Z,87.70
2022-11-28T11:33:02.265Z,51.70
2022-11-28T11:38:37.545Z,31.42
2022-11-28T11:43:40.339Z,22.23
2022-11-28T11:48:53.718Z,23.40
2022-11-28T11:54:03.990Z,14.13
2022-11-28T11:59:33.595Z,15.73
2022-11-28T12:04:48.063Z,21.02
2022-11-28T12:09:56.583Z,34.17
2022-11-28T12:15:00.832Z,17.17
2022-11-28T12:20:47.544Z,15.20
2022-11-28T12:26:04.623Z,12.88
2022-11-28T12:31:45.887Z,13.40
2022-11-28T12:37:42.077Z,13.55
2022-11-28T12:42:49.518Z,11.65
2022-11-28T12:48:00.632Z,10.00
2022-11-28T12:53:35.073Z,9.95
2022-11-28T12:58:44.051Z,15.88
2022-11-28T13:04:04.930Z,11.48
2022-11-28T13:09:27.455Z,14.57
2022-11-28T13:14:51.974Z,12.57
2022-11-28T13:20:15.304Z,12.70
2022-11-28T13:25:17.471Z,13.48
2022-11-28T13:30:26.145Z,15.85
2022-11-28T13:35:29.738Z,24.10
2022-11-28T13:40:50.351Z,15.90
2022-11-28T13:45:52.980Z,15.13
2022-11-28T13:51:19.150Z,12.65
2022-11-28T13:56:27.743Z,14.50
2022-11-28T14:02:01.520Z,13.52
2022-11-28T14:07:08.250Z,13.65
2022-11-28T14:12:29.258Z,13.52
2022-11-28T14:18:14.144Z,16.77
2022-11-28T14:24:04.648Z,14.00
2022-11-28T14:29:24.928Z,10.10
2022-11-28T14:34:47.364Z,8.90
2022-11-28T14:39:51.427Z,11.48
2022-11-28T14:45:07.897Z,13.98
2022-11-28T14:50:20.968Z,16.17
2022-11-28T14:55:26.242Z,12.90
2022-11-28T15:00:55.235Z,37.80
2022-11-28T15:06:08.118Z,15.27
2022-11-28T15:11:46.957Z,18.77
2022-11-28T15:16:53.294Z,15.00
2022-11-28T15:21:56.722Z,14.50
2022-11-28T15:27:08.212Z,17.40
2022-11-28T15:32:14.252Z,11.55
2022-11-28T15:37:19.378Z,45.85
2022-11-28T15:42:25.959Z,19.95
2022-11-28T15:47:29.036Z,20.33
2022-11-28T15:52:32.279Z,24.30
2022-11-28T15:57:34.489Z,22.83
2022-11-28T16:02:39.172Z,21.48
2022-11-28T16:07:45.580Z,18.50
2022-11-28T16:12:48.579Z,19.33
2022-11-28T16:17:51.135Z,20.85
2022-11-28T16:23:02.867Z,71.75
2022-11-28T16:28:31.423Z,39.70
2022-11-28T16:33:45.263Z,44.50
2022-11-28T16:38:49.448Z,25.55
2022-11-28T16:43:59.499Z,33.08
2022-11-28T16:49:03.069Z,38.58
2022-11-28T16:54:32.153Z,52.63
2022-11-28T16:59:34.398Z,58.00
2022-11-28T17:04:36.615Z,55.05
2022-11-28T17:09:39.054Z,53.65
2022-11-28T17:14:41.310Z,47.70
2022-11-28T17:19:44.628Z,40.58
2022-11-28T17:24:48.968Z,39.35
2022-11-28T17:29:51.355Z,43.00
2022-11-28T17:34:53.781Z,34.22
2022-11-28T17:40:14.615Z,16.70
2022-11-28T17:45:17.143Z,38.50
2022-11-28T17:50:19.626Z,43.00
2022-11-28T17:55:22.719Z,48.55
2022-11-28T18:00:25.137Z,55.60
2022-11-28T18:05:27.595Z,49.25
2022-11-28T18:10:30.333Z,51.45
2022-11-28T18:15:35.089Z,47.55
2022-11-28T18:20:37.947Z,36.55
2022-11-28T18:25:45.165Z,47.88
2022-11-28T18:30:48.456Z,53.88
2022-11-28T18:35:50.752Z,48.10
2022-11-28T18:40:54.118Z,49.75
2022-11-28T18:45:56.363Z,85.07
2022-11-28T18:50:58.756Z,74.70
2022-11-28T18:56:02.760Z,168.60
2022-11-28T19:01:18.096Z,95.25
2022-11-28T19:06:21.711Z,92.80
2022-11-28T19:11:24.819Z,58.33
2022-11-28T19:16:32.317Z,61.25
2022-11-28T19:21:36.311Z,65.35
2022-11-28T19:26:38.796Z,61.95
2022-11-28T19:31:42.236Z,66.15
2022-11-28T19:36:47.404Z,124.72
2022-11-28T19:41:52.155Z,69.05
2022-11-28T19:46:54.500Z,77.63
2022-11-28T19:51:56.808Z,80.60
2022-11-28T19:56:58.999Z,94.88
2022-11-28T20:02:02.985Z,144.93
2022-11-28T20:07:05.408Z,113.45
2022-11-28T20:12:08.161Z,119.18
2022-11-28T20:17:10.628Z,97.45
2022-11-28T20:22:12.770Z,115.80
2022-11-28T20:27:14.924Z,112.50
2022-11-28T20:32:17.362Z,107.32
2022-11-28T20:37:20.074Z,96.90
2022-11-28T20:42:22.114Z,123.63
2022-11-28T20:47:24.735Z,98.93
2022-11-28T20:52:27.102Z,88.00
2022-11-28T20:57:29.235Z,93.57
2022-11-28T21:02:31.332Z,89.50
2022-11-28T21:07:33.750Z,95.63
2022-11-28T21:12:36.198Z,101.03
2022-11-28T21:17:38.442Z,84.60
2022-11-28T21:22:40.522Z,95.40
2022-11-28T21:27:42.703Z,101.20
2022-11-28T21:32:44.872Z,101.72
2022-11-28T21:37:47.040Z,108.28
2022-11-28T21:42:49.073Z,99.10
2022-11-28T21:47:52.418Z,93.22
2022-11-28T21:52:54.743Z,94.97
2022-11-28T21:57:57.550Z,95.97
2022-11-28T22:03:16.426Z,124.03
2022-11-28T22:08:22.100Z,94.05
2022-11-28T22:13:24.433Z,90.05
2022-11-28T22:18:29.561Z,93.82
2022-11-28T22:23:35.031Z,94.10
2022-11-28T22:28:38.819Z,118.95
2022-11-28T22:33:42.925Z,120.32
2022-11-28T22:38:46.628Z,103.88
2022-11-28T22:43:48.883Z,93.85
2022-11-28T22:48:52.213Z,92.93
2022-11-28T22:53:58.854Z,102.93
2022-11-28T22:59:05.154Z,93.90
2022-11-28T23:04:08.383Z,95.53
2022-11-28T23:09:12.979Z,96.78
2022-11-28T23:14:15.555Z,97.60
2022-11-28T23:19:19.627Z,96.50
2022-11-28T23:24:23.168Z,88.03
2022-11-28T23:29:25.624Z,90.15
2022-11-28T23:34:27.874Z,94.22
2022-11-28T23:39:30.060Z,79.45
2022-11-28T23:44:39.066Z,89.82
2022-11-28T23:49:41.294Z,82.32
2022-11-28T23:54:43.623Z,91.35
2022-11-28T23:59:46.408Z,88.63
